sensor_id;sensor_type;location;lat;lon;timestamp;P1;durP1;ratioP1;P2;durP2;ratioP2
23206;SDS011;11773;52.570;13.052;2022-08-18T00:01:24;2.00;;;1.90;;
23206;SDS011;11773;52.570;13.052;2022-08-18T00:03:56;2.10;;;2.00;;
23206;SDS011;11773;52.570;13.052;2022-08-18T00:06:27;1.80;;;1.70;;
23206;SDS011;11773;52.570;13.052;2022-08-18T00:08:58;1.77;;;1.67;;
23206;SDS011;11773;52.570;13.052;2022-08-18T00:11:32;2.03;;;1.93;;
23206;SDS011;11773;52.570;13.052;2022-08-18T00:14:08;1.87;;;1.77;;
23206;SDS011;11773;52.570;13.052;2022-08-18T00:16:45;1.60;;;1.50;;
23206;SDS011;11773;52.570;13.052;2022-08-18T00:19:16;2.20;;;2.00;;
23206;SDS011;11773;52.570;13.052;2022-08-18T00:21:47;2.17;;;2.07;;
23206;SDS011;11773;52.570;13.052;2022-08-18T00:24:17;1.70;;;1.60;;
23206;SDS011;11773;52.570;13.052;2022-08-18T00:26:46;2.17;;;2.07;;
23206;SDS011;11773;52.570;13.052;2022-08-18T00:29:16;2.00;;;1.90;;
23206;SDS011;11773;52.570;13.052;2022-08-18T00:31:45;2.60;;;2.40;;
23206;SDS011;11773;52.570;13.052;2022-08-18T00:34:15;2.10;;;2.00;;
23206;SDS011;11773;52.570;13.052;2022-08-18T00:36:45;2.17;;;2.07;;
23206;SDS011;11773;52.570;13.052;2022-08-18T00:39:16;1.83;;;1.73;;
23206;SDS011;11773;52.570;13.052;2022-08-18T00:41:45;2.20;;;2.10;;
23206;SDS011;11773;52.570;13.052;2022-08-18T00:44:15;1.77;;;1.67;;
23206;SDS011;11773;52.570;13.052;2022-08-18T00:46:44;1.90;;;1.80;;
23206;SDS011;11773;52.570;13.052;2022-08-18T00:49:13;1.90;;;1.80;;
23206;SDS011;11773;52.570;13.052;2022-08-18T00:51:46;1.83;;;1.73;;
23206;SDS011;11773;52.570;13.052;2022-08-18T00:54:18;2.03;;;1.93;;
23206;SDS011;11773;52.570;13.052;2022-08-18T00:56:52;2.10;;;2.00;;
23206;SDS011;11773;52.570;13.052;2022-08-18T00:59:39;2.27;;;2.17;;
23206;SDS011;11773;52.570;13.052;2022-08-18T01:02:25;2.30;;;2.07;;
23206;SDS011;11773;52.570;13.052;2022-08-18T01:05:02;2.13;;;2.03;;
23206;SDS011;11773;52.570;13.052;2022-08-18T01:07:41;2.30;;;2.20;;
23206;SDS011;11773;52.570;13.052;2022-08-18T01:10:16;1.70;;;1.60;;
23206;SDS011;11773;52.570;13.052;2022-08-18T01:12:49;2.10;;;2.00;;
23206;SDS011;11773;52.570;13.052;2022-08-18T01:15:22;1.97;;;1.67;;
23206;SDS011;11773;52.570;13.052;2022-08-18T01:17:57;2.00;;;1.90;;
23206;SDS011;11773;52.570;13.052;2022-08-18T01:24:08;2.10;;;2.00;;
23206;SDS011;11773;52.570;13.052;2022-08-18T01:26:41;1.93;;;1.83;;
23206;SDS011;11773;52.570;13.052;2022-08-18T01:29:16;2.20;;;2.10;;
23206;SDS011;11773;52.570;13.052;2022-08-18T01:31:48;1.90;;;1.80;;
23206;SDS011;11773;52.570;13.052;2022-08-18T01:34:24;2.10;;;2.00;;
23206;SDS011;11773;52.570;13.052;2022-08-18T01:36:54;2.33;;;2.13;;
23206;SDS011;11773;52.570;13.052;2022-08-18T01:39:25;2.50;;;2.30;;
23206;SDS011;11773;52.570;13.052;2022-08-18T01:41:56;2.37;;;2.17;;
23206;SDS011;11773;52.570;13.052;2022-08-18T01:44:27;2.00;;;1.90;;
23206;SDS011;11773;52.570;13.052;2022-08-18T01:46:57;2.03;;;1.93;;
23206;SDS011;11773;52.570;13.052;2022-08-18T01:49:26;2.07;;;1.97;;
23206;SDS011;11773;52.570;13.052;2022-08-18T01:51:56;2.47;;;2.37;;
23206;SDS011;11773;52.570;13.052;2022-08-18T01:54:25;2.43;;;2.23;;
23206;SDS011;11773;52.570;13.052;2022-08-18T01:56:56;1.90;;;1.80;;
23206;SDS011;11773;52.570;13.052;2022-08-18T01:59:26;2.20;;;2.10;;
23206;SDS011;11773;52.570;13.052;2022-08-18T02:01:56;1.83;;;1.73;;
23206;SDS011;11773;52.570;13.052;2022-08-18T02:04:27;2.00;;;1.90;;
23206;SDS011;11773;52.570;13.052;2022-08-18T02:07:01;1.90;;;1.80;;
23206;SDS011;11773;52.570;13.052;2022-08-18T02:09:36;1.83;;;1.73;;
23206;SDS011;11773;52.570;13.052;2022-08-18T02:12:09;1.70;;;1.60;;
23206;SDS011;11773;52.570;13.052;2022-08-18T02:14:39;1.80;;;1.70;;
23206;SDS011;11773;52.570;13.052;2022-08-18T02:17:10;2.07;;;1.97;;
23206;SDS011;11773;52.570;13.052;2022-08-18T02:19:42;1.90;;;1.80;;
23206;SDS011;11773;52.570;13.052;2022-08-18T02:22:16;2.02;;;1.80;;
23206;SDS011;11773;52.570;13.052;2022-08-18T02:24:47;2.00;;;1.90;;
23206;SDS011;11773;52.570;13.052;2022-08-18T02:27:16;2.13;;;2.03;;
23206;SDS011;11773;52.570;13.052;2022-08-18T02:29:46;1.97;;;1.87;;
23206;SDS011;11773;52.570;13.052;2022-08-18T02:32:15;2.10;;;1.90;;
23206;SDS011;11773;52.570;13.052;2022-08-18T02:34:45;2.17;;;2.07;;
23206;SDS011;11773;52.570;13.052;2022-08-18T02:37:14;2.30;;;2.20;;
23206;SDS011;11773;52.570;13.052;2022-08-18T02:39:44;2.27;;;2.17;;
23206;SDS011;11773;52.570;13.052;2022-08-18T02:42:14;2.60;;;2.40;;
23206;SDS011;11773;52.570;13.052;2022-08-18T02:44:44;2.20;;;2.10;;
23206;SDS011;11773;52.570;13.052;2022-08-18T02:47:13;1.83;;;1.73;;
23206;SDS011;11773;52.570;13.052;2022-08-18T02:49:48;2.20;;;2.10;;
23206;SDS011;11773;52.570;13.052;2022-08-18T02:52:17;2.30;;;2.20;;
23206;SDS011;11773;52.570;13.052;2022-08-18T02:54:47;1.83;;;1.73;;
23206;SDS011;11773;52.570;13.052;2022-08-18T02:57:16;2.60;;;2.40;;
23206;SDS011;11773;52.570;13.052;2022-08-18T02:59:48;2.57;;;2.20;;
23206;SDS011;11773;52.570;13.052;2022-08-18T03:02:17;2.20;;;2.10;;
23206;SDS011;11773;52.570;13.052;2022-08-18T03:04:47;2.40;;;2.20;;
23206;SDS011;11773;52.570;13.052;2022-08-18T03:07:17;2.50;;;2.30;;
23206;SDS011;11773;52.570;13.052;2022-08-18T03:09:46;2.30;;;2.10;;
23206;SDS011;11773;52.570;13.052;2022-08-18T03:12:16;2.30;;;2.20;;
23206;SDS011;11773;52.570;13.052;2022-08-18T03:14:46;2.23;;;2.13;;
23206;SDS011;11773;52.570;13.052;2022-08-18T03:17:16;2.10;;;2.00;;
23206;SDS011;11773;52.570;13.052;2022-08-18T03:19:45;2.27;;;2.17;;
23206;SDS011;11773;52.570;13.052;2022-08-18T03:22:16;2.20;;;2.00;;
23206;SDS011;11773;52.570;13.052;2022-08-18T03:24:48;2.70;;;2.50;;
23206;SDS011;11773;52.570;13.052;2022-08-18T03:27:17;2.07;;;1.97;;
23206;SDS011;11773;52.570;13.052;2022-08-18T03:29:47;2.37;;;2.20;;
23206;SDS011;11773;52.570;13.052;2022-08-18T03:32:17;2.13;;;2.03;;
23206;SDS011;11773;52.570;13.052;2022-08-18T03:34:46;2.40;;;2.20;;
23206;SDS011;11773;52.570;13.052;2022-08-18T03:37:16;2.20;;;2.00;;
23206;SDS011;11773;52.570;13.052;2022-08-18T03:39:47;2.50;;;2.30;;
23206;SDS011;11773;52.570;13.052;2022-08-18T03:42:18;2.60;;;2.40;;
23206;SDS011;11773;52.570;13.052;2022-08-18T03:44:48;2.80;;;2.60;;
23206;SDS011;11773;52.570;13.052;2022-08-18T03:47:18;2.57;;;2.37;;
23206;SDS011;11773;52.570;13.052;2022-08-18T03:49:47;2.40;;;2.20;;
23206;SDS011;11773;52.570;13.052;2022-08-18T03:52:17;2.10;;;2.00;;
23206;SDS011;11773;52.570;13.052;2022-08-18T03:54:46;2.00;;;1.90;;
23206;SDS011;11773;52.570;13.052;2022-08-18T03:57:16;2.17;;;2.07;;
23206;SDS011;11773;52.570;13.052;2022-08-18T03:59:45;2.30;;;2.20;;
23206;SDS011;11773;52.570;13.052;2022-08-18T04:02:15;2.90;;;2.70;;
23206;SDS011;11773;52.570;13.052;2022-08-18T04:04:44;2.70;;;2.50;;
23206;SDS011;11773;52.570;13.052;2022-08-18T04:07:17;2.40;;;2.20;;
23206;SDS011;11773;52.570;13.052;2022-08-18T04:09:46;2.30;;;2.20;;
23206;SDS011;11773;52.570;13.052;2022-08-18T04:12:16;2.10;;;2.00;;
23206;SDS011;11773;52.570;13.052;2022-08-18T04:14:46;2.20;;;2.10;;
23206;SDS011;11773;52.570;13.052;2022-08-18T04:17:18;2.40;;;2.30;;
23206;SDS011;11773;52.570;13.052;2022-08-18T04:19:52;2.20;;;2.07;;
23206;SDS011;11773;52.570;13.052;2022-08-18T04:22:23;2.13;;;2.03;;
23206;SDS011;11773;52.570;13.052;2022-08-18T04:24:53;2.80;;;2.60;;
23206;SDS011;11773;52.570;13.052;2022-08-18T04:27:24;2.60;;;2.10;;
23206;SDS011;11773;52.570;13.052;2022-08-18T04:29:53;2.10;;;2.00;;
23206;SDS011;11773;52.570;13.052;2022-08-18T04:32:24;2.47;;;2.27;;
23206;SDS011;11773;52.570;13.052;2022-08-18T04:34:56;2.53;;;2.33;;
23206;SDS011;11773;52.570;13.052;2022-08-18T04:37:27;2.70;;;2.50;;
23206;SDS011;11773;52.570;13.052;2022-08-18T04:40:00;2.60;;;2.40;;
23206;SDS011;11773;52.570;13.052;2022-08-18T04:42:31;3.00;;;2.80;;
23206;SDS011;11773;52.570;13.052;2022-08-18T04:45:02;2.17;;;2.07;;
23206;SDS011;11773;52.570;13.052;2022-08-18T04:47:33;3.30;;;3.00;;
23206;SDS011;11773;52.570;13.052;2022-08-18T04:50:02;2.80;;;2.60;;
23206;SDS011;11773;52.570;13.052;2022-08-18T04:52:32;2.70;;;2.50;;
23206;SDS011;11773;52.570;13.052;2022-08-18T04:55:19;2.50;;;2.30;;
23206;SDS011;11773;52.570;13.052;2022-08-18T04:57:49;2.60;;;2.40;;
23206;SDS011;11773;52.570;13.052;2022-08-18T05:00:19;2.60;;;2.40;;
23206;SDS011;11773;52.570;13.052;2022-08-18T05:02:49;2.40;;;2.20;;
23206;SDS011;11773;52.570;13.052;2022-08-18T05:05:20;2.47;;;2.27;;
23206;SDS011;11773;52.570;13.052;2022-08-18T05:07:50;2.40;;;2.20;;
23206;SDS011;11773;52.570;13.052;2022-08-18T05:10:20;2.90;;;2.70;;
23206;SDS011;11773;52.570;13.052;2022-08-18T05:12:49;3.43;;;3.13;;
23206;SDS011;11773;52.570;13.052;2022-08-18T05:15:19;3.77;;;3.47;;
23206;SDS011;11773;52.570;13.052;2022-08-18T05:17:48;3.60;;;3.30;;
23206;SDS011;11773;52.570;13.052;2022-08-18T05:20:19;3.47;;;3.20;;
23206;SDS011;11773;52.570;13.052;2022-08-18T05:22:51;2.60;;;2.43;;
23206;SDS011;11773;52.570;13.052;2022-08-18T05:25:21;2.93;;;2.73;;
23206;SDS011;11773;52.570;13.052;2022-08-18T05:27:51;3.30;;;3.10;;
23206;SDS011;11773;52.570;13.052;2022-08-18T05:30:20;2.60;;;2.40;;
23206;SDS011;11773;52.570;13.052;2022-08-18T05:32:50;2.87;;;2.67;;
23206;SDS011;11773;52.570;13.052;2022-08-18T05:35:24;3.60;;;3.30;;
23206;SDS011;11773;52.570;13.052;2022-08-18T05:38:16;3.33;;;3.03;;
23206;SDS011;11773;52.570;13.052;2022-08-18T05:41:18;2.83;;;2.63;;
23206;SDS011;11773;52.570;13.052;2022-08-18T05:43:51;2.80;;;2.60;;
23206;SDS011;11773;52.570;13.052;2022-08-18T05:46:23;2.90;;;2.70;;
23206;SDS011;11773;52.570;13.052;2022-08-18T05:49:12;3.03;;;2.83;;
23206;SDS011;11773;52.570;13.052;2022-08-18T05:51:44;3.93;;;3.53;;
23206;SDS011;11773;52.570;13.052;2022-08-18T05:54:18;3.43;;;3.23;;
23206;SDS011;11773;52.570;13.052;2022-08-18T05:57:13;3.30;;;3.00;;
23206;SDS011;11773;52.570;13.052;2022-08-18T05:59:45;3.60;;;3.30;;
23206;SDS011;11773;52.570;13.052;2022-08-18T06:05:05;2.63;;;2.50;;
23206;SDS011;11773;52.570;13.052;2022-08-18T06:07:41;4.20;;;3.80;;
23206;SDS011;11773;52.570;13.052;2022-08-18T06:10:20;3.53;;;3.30;;
23206;SDS011;11773;52.570;13.052;2022-08-18T06:12:55;3.40;;;3.20;;
23206;SDS011;11773;52.570;13.052;2022-08-18T06:18:50;3.53;;;3.23;;
23206;SDS011;11773;52.570;13.052;2022-08-18T06:24:23;2.90;;;2.70;;
23206;SDS011;11773;52.570;13.052;2022-08-18T06:27:07;3.87;;;3.57;;
23206;SDS011;11773;52.570;13.052;2022-08-18T06:30:09;3.50;;;3.20;;
23206;SDS011;11773;52.570;13.052;2022-08-18T06:33:11;3.20;;;3.00;;
23206;SDS011;11773;52.570;13.052;2022-08-18T06:35:50;3.30;;;3.00;;
23206;SDS011;11773;52.570;13.052;2022-08-18T06:41:22;3.10;;;2.90;;
23206;SDS011;11773;52.570;13.052;2022-08-18T06:46:53;3.20;;;3.00;;
23206;SDS011;11773;52.570;13.052;2022-08-18T06:49:55;3.67;;;3.40;;
23206;SDS011;11773;52.570;13.052;2022-08-18T06:53:03;3.90;;;3.60;;
23206;SDS011;11773;52.570;13.052;2022-08-18T06:55:33;4.40;;;4.10;;
23206;SDS011;11773;52.570;13.052;2022-08-18T07:01:00;3.10;;;2.90;;
23206;SDS011;11773;52.570;13.052;2022-08-18T07:06:09;3.30;;;3.10;;
23206;SDS011;11773;52.570;13.052;2022-08-18T07:08:51;3.07;;;2.87;;
23206;SDS011;11773;52.570;13.052;2022-08-18T07:11:26;2.90;;;2.70;;
23206;SDS011;11773;52.570;13.052;2022-08-18T07:14:44;2.40;;;2.30;;
23206;SDS011;11773;52.570;13.052;2022-08-18T07:17:04;3.23;;;2.77;;
23206;SDS011;11773;52.570;13.052;2022-08-18T07:19:34;2.60;;;2.40;;
23206;SDS011;11773;52.570;13.052;2022-08-18T07:22:07;2.47;;;2.30;;
23206;SDS011;11773;52.570;13.052;2022-08-18T07:24:39;2.30;;;2.10;;
23206;SDS011;11773;52.570;13.052;2022-08-18T07:27:39;2.97;;;2.77;;
23206;SDS011;11773;52.570;13.052;2022-08-18T07:35:51;3.20;;;2.43;;
23206;SDS011;11773;52.570;13.052;2022-08-18T07:38:44;3.10;;;2.90;;
23206;SDS011;11773;52.570;13.052;2022-08-18T07:41:14;4.13;;;3.80;;
23206;SDS011;11773;52.570;13.052;2022-08-18T07:46:35;4.60;;;4.30;;
23206;SDS011;11773;52.570;13.052;2022-08-18T07:49:39;4.30;;;3.90;;
23206;SDS011;11773;52.570;13.052;2022-08-18T07:55:06;3.80;;;3.50;;
23206;SDS011;11773;52.570;13.052;2022-08-18T08:06:43;3.37;;;3.17;;
23206;SDS011;11773;52.570;13.052;2022-08-18T08:12:15;3.00;;;2.70;;
23206;SDS011;11773;52.570;13.052;2022-08-18T08:15:16;2.83;;;2.63;;
23206;SDS011;11773;52.570;13.052;2022-08-18T08:17:54;3.40;;;3.20;;
23206;SDS011;11773;52.570;13.052;2022-08-18T08:20:26;3.23;;;3.00;;
23206;SDS011;11773;52.570;13.052;2022-08-18T08:23:40;3.20;;;3.00;;
23206;SDS011;11773;52.570;13.052;2022-08-18T08:25:59;3.10;;;2.90;;
23206;SDS011;11773;52.570;13.052;2022-08-18T08:34:48;2.90;;;2.70;;
23206;SDS011;11773;52.570;13.052;2022-08-18T08:37:28;3.10;;;2.90;;
23206;SDS011;11773;52.570;13.052;2022-08-18T08:40:25;3.15;;;2.95;;
23206;SDS011;11773;52.570;13.052;2022-08-18T08:43:07;3.47;;;3.20;;
23206;SDS011;11773;52.570;13.052;2022-08-18T08:48:51;3.03;;;2.83;;
23206;SDS011;11773;52.570;13.052;2022-08-18T08:54:10;3.27;;;3.00;;
23206;SDS011;11773;52.570;13.052;2022-08-18T08:56:46;4.03;;;3.73;;
23206;SDS011;11773;52.570;13.052;2022-08-18T08:59:20;3.87;;;3.57;;
23206;SDS011;11773;52.570;13.052;2022-08-18T09:02:39;4.00;;;3.70;;
23206;SDS011;11773;52.570;13.052;2022-08-18T09:04:46;3.50;;;3.30;;
23206;SDS011;11773;52.570;13.052;2022-08-18T09:07:41;3.50;;;3.20;;
23206;SDS011;11773;52.570;13.052;2022-08-18T09:13:35;3.60;;;3.40;;
23206;SDS011;11773;52.570;13.052;2022-08-18T09:16:11;3.37;;;3.17;;
23206;SDS011;11773;52.570;13.052;2022-08-18T09:21:52;3.00;;;2.80;;
23206;SDS011;11773;52.570;13.052;2022-08-18T09:24:38;3.70;;;3.40;;
23206;SDS011;11773;52.570;13.052;2022-08-18T09:27:12;3.90;;;3.60;;
23206;SDS011;11773;52.570;13.052;2022-08-18T09:30:00;3.70;;;3.40;;
23206;SDS011;11773;52.570;13.052;2022-08-18T09:35:50;3.50;;;3.20;;
23206;SDS011;11773;52.570;13.052;2022-08-18T09:38:29;3.57;;;3.37;;
23206;SDS011;11773;52.570;13.052;2022-08-18T09:41:24;3.90;;;3.60;;
23206;SDS011;11773;52.570;13.052;2022-08-18T09:44:04;3.93;;;3.63;;
23206;SDS011;11773;52.570;13.052;2022-08-18T09:51:59;4.00;;;3.70;;
23206;SDS011;11773;52.570;13.052;2022-08-18T09:57:36;3.80;;;3.50;;
23206;SDS011;11773;52.570;13.052;2022-08-18T10:05:30;3.70;;;3.40;;
23206;SDS011;11773;52.570;13.052;2022-08-18T10:10:54;3.57;;;3.27;;
23206;SDS011;11773;52.570;13.052;2022-08-18T10:13:44;3.47;;;3.27;;
23206;SDS011;11773;52.570;13.052;2022-08-18T10:16:20;3.80;;;3.50;;
23206;SDS011;11773;52.570;13.052;2022-08-18T10:24:31;3.73;;;3.43;;
23206;SDS011;11773;52.570;13.052;2022-08-18T10:33:08;3.17;;;2.97;;
23206;SDS011;11773;52.570;13.052;2022-08-18T10:38:34;5.53;;;5.03;;
23206;SDS011;11773;52.570;13.052;2022-08-18T10:41:11;5.73;;;5.20;;
23206;SDS011;11773;52.570;13.052;2022-08-18T10:43:44;4.60;;;4.30;;
23206;SDS011;11773;52.570;13.052;2022-08-18T10:46:20;4.50;;;4.20;;
23206;SDS011;11773;52.570;13.052;2022-08-18T10:54:59;4.30;;;4.00;;
23206;SDS011;11773;52.570;13.052;2022-08-18T11:03:38;4.30;;;4.00;;
23206;SDS011;11773;52.570;13.052;2022-08-18T11:06:16;3.77;;;3.53;;
23206;SDS011;11773;52.570;13.052;2022-08-18T11:08:49;3.70;;;3.40;;
23206;SDS011;11773;52.570;13.052;2022-08-18T11:11:30;3.83;;;3.60;;
23206;SDS011;11773;52.570;13.052;2022-08-18T11:14:13;3.27;;;3.07;;
23206;SDS011;11773;52.570;13.052;2022-08-18T11:16:58;3.10;;;2.90;;
23206;SDS011;11773;52.570;13.052;2022-08-18T11:19:49;3.20;;;3.00;;
23206;SDS011;11773;52.570;13.052;2022-08-18T11:22:25;3.47;;;3.27;;
23206;SDS011;11773;52.570;13.052;2022-08-18T11:25:00;3.53;;;3.33;;
23206;SDS011;11773;52.570;13.052;2022-08-18T11:27:34;3.40;;;3.20;;
23206;SDS011;11773;52.570;13.052;2022-08-18T11:30:06;3.80;;;3.50;;
23206;SDS011;11773;52.570;13.052;2022-08-18T11:32:39;3.50;;;3.30;;
23206;SDS011;11773;52.570;13.052;2022-08-18T11:35:13;2.67;;;2.47;;
23206;SDS011;11773;52.570;13.052;2022-08-18T11:37:48;2.50;;;2.40;;
23206;SDS011;11773;52.570;13.052;2022-08-18T11:40:35;3.50;;;3.23;;
23206;SDS011;11773;52.570;13.052;2022-08-18T11:43:13;3.43;;;3.23;;
23206;SDS011;11773;52.570;13.052;2022-08-18T11:45:49;3.00;;;2.80;;
23206;SDS011;11773;52.570;13.052;2022-08-18T11:51:17;3.10;;;2.83;;
23206;SDS011;11773;52.570;13.052;2022-08-18T11:53:59;2.90;;;2.70;;
23206;SDS011;11773;52.570;13.052;2022-08-18T11:56:41;2.92;;;2.67;;
23206;SDS011;11773;52.570;13.052;2022-08-18T12:02:01;3.65;;;3.37;;
23206;SDS011;11773;52.570;13.052;2022-08-18T12:04:37;3.00;;;2.77;;
23206;SDS011;11773;52.570;13.052;2022-08-18T12:07:10;3.27;;;3.07;;
23206;SDS011;11773;52.570;13.052;2022-08-18T12:09:47;4.20;;;3.90;;
23206;SDS011;11773;52.570;13.052;2022-08-18T12:12:43;4.37;;;4.08;;
23206;SDS011;11773;52.570;13.052;2022-08-18T12:17:57;3.35;;;3.05;;
23206;SDS011;11773;52.570;13.052;2022-08-18T12:20:27;3.40;;;3.17;;
23206;SDS011;11773;52.570;13.052;2022-08-18T12:22:56;4.60;;;4.30;;
23206;SDS011;11773;52.570;13.052;2022-08-18T12:25:26;4.10;;;3.80;;
23206;SDS011;11773;52.570;13.052;2022-08-18T12:27:56;3.30;;;3.10;;
23206;SDS011;11773;52.570;13.052;2022-08-18T12:30:26;3.70;;;3.50;;
23206;SDS011;11773;52.570;13.052;2022-08-18T12:32:58;3.62;;;3.42;;
23206;SDS011;11773;52.570;13.052;2022-08-18T12:35:29;3.50;;;3.30;;
23206;SDS011;11773;52.570;13.052;2022-08-18T12:38:00;3.40;;;3.20;;
23206;SDS011;11773;52.570;13.052;2022-08-18T12:40:31;3.10;;;2.90;;
23206;SDS011;11773;52.570;13.052;2022-08-18T12:43:01;2.80;;;2.60;;
23206;SDS011;11773;52.570;13.052;2022-08-18T12:45:31;3.00;;;2.80;;
23206;SDS011;11773;52.570;13.052;2022-08-18T12:48:03;3.30;;;3.10;;
23206;SDS011;11773;52.570;13.052;2022-08-18T12:50:34;2.95;;;2.75;;
23206;SDS011;11773;52.570;13.052;2022-08-18T12:53:07;2.55;;;2.45;;
23206;SDS011;11773;52.570;13.052;2022-08-18T12:55:42;2.92;;;2.72;;
23206;SDS011;11773;52.570;13.052;2022-08-18T12:58:13;2.83;;;2.62;;
23206;SDS011;11773;52.570;13.052;2022-08-18T13:00:44;3.02;;;2.83;;
23206;SDS011;11773;52.570;13.052;2022-08-18T13:03:15;2.80;;;2.60;;
23206;SDS011;11773;52.570;13.052;2022-08-18T13:05:45;2.85;;;2.65;;
23206;SDS011;11773;52.570;13.052;2022-08-18T13:08:18;3.10;;;2.90;;
23206;SDS011;11773;52.570;13.052;2022-08-18T13:10:50;2.87;;;2.67;;
23206;SDS011;11773;52.570;13.052;2022-08-18T13:13:21;2.47;;;2.37;;
23206;SDS011;11773;52.570;13.052;2022-08-18T13:15:53;2.62;;;2.42;;
23206;SDS011;11773;52.570;13.052;2022-08-18T13:18:25;2.67;;;2.55;;
23206;SDS011;11773;52.570;13.052;2022-08-18T13:21:01;2.90;;;2.70;;
23206;SDS011;11773;52.570;13.052;2022-08-18T13:23:27;2.97;;;2.77;;
23206;SDS011;11773;52.570;13.052;2022-08-18T13:25:58;2.72;;;2.52;;
23206;SDS011;11773;52.570;13.052;2022-08-18T13:28:30;3.00;;;2.80;;
23206;SDS011;11773;52.570;13.052;2022-08-18T13:31:03;2.90;;;2.70;;
23206;SDS011;11773;52.570;13.052;2022-08-18T13:33:33;2.77;;;2.57;;
23206;SDS011;11773;52.570;13.052;2022-08-18T13:36:04;2.40;;;2.30;;
23206;SDS011;11773;52.570;13.052;2022-08-18T13:38:34;2.67;;;2.47;;
23206;SDS011;11773;52.570;13.052;2022-08-18T13:41:03;2.40;;;2.30;;
23206;SDS011;11773;52.570;13.052;2022-08-18T13:43:37;2.40;;;2.22;;
23206;SDS011;11773;52.570;13.052;2022-08-18T13:46:10;2.70;;;2.50;;
23206;SDS011;11773;52.570;13.052;2022-08-18T13:48:45;2.52;;;2.33;;
23206;SDS011;11773;52.570;13.052;2022-08-18T13:51:20;2.20;;;2.10;;
23206;SDS011;11773;52.570;13.052;2022-08-18T13:53:51;2.40;;;2.20;;
23206;SDS011;11773;52.570;13.052;2022-08-18T13:56:22;2.60;;;2.40;;
23206;SDS011;11773;52.570;13.052;2022-08-18T13:58:53;2.53;;;2.33;;
23206;SDS011;11773;52.570;13.052;2022-08-18T14:01:23;2.30;;;2.20;;
23206;SDS011;11773;52.570;13.052;2022-08-18T14:03:54;2.30;;;2.20;;
23206;SDS011;11773;52.570;13.052;2022-08-18T14:06:24;2.10;;;2.00;;
23206;SDS011;11773;52.570;13.052;2022-08-18T14:08:53;2.27;;;2.10;;
23206;SDS011;11773;52.570;13.052;2022-08-18T14:11:25;2.08;;;1.98;;
23206;SDS011;11773;52.570;13.052;2022-08-18T14:13:59;2.20;;;2.10;;
23206;SDS011;11773;52.570;13.052;2022-08-18T14:16:31;2.35;;;2.25;;
23206;SDS011;11773;52.570;13.052;2022-08-18T14:19:01;2.42;;;2.22;;
23206;SDS011;11773;52.570;13.052;2022-08-18T14:21:49;2.30;;;2.20;;
23206;SDS011;11773;52.570;13.052;2022-08-18T14:24:39;2.45;;;2.35;;
23206;SDS011;11773;52.570;13.052;2022-08-18T14:27:30;2.40;;;2.30;;
23206;SDS011;11773;52.570;13.052;2022-08-18T14:30:09;1.90;;;1.80;;
23206;SDS011;11773;52.570;13.052;2022-08-18T14:32:39;2.80;;;2.60;;
23206;SDS011;11773;52.570;13.052;2022-08-18T14:35:12;2.95;;;2.75;;
23206;SDS011;11773;52.570;13.052;2022-08-18T14:37:44;4.45;;;2.80;;
23206;SDS011;11773;52.570;13.052;2022-08-18T14:40:14;2.90;;;2.70;;
23206;SDS011;11773;52.570;13.052;2022-08-18T14:42:46;3.00;;;2.80;;
23206;SDS011;11773;52.570;13.052;2022-08-18T14:45:17;2.72;;;2.52;;
23206;SDS011;11773;52.570;13.052;2022-08-18T14:47:49;3.43;;;3.20;;
23206;SDS011;11773;52.570;13.052;2022-08-18T14:50:20;3.10;;;2.90;;
23206;SDS011;11773;52.570;13.052;2022-08-18T14:52:51;3.10;;;2.90;;
23206;SDS011;11773;52.570;13.052;2022-08-18T14:55:21;2.63;;;2.50;;
23206;SDS011;11773;52.570;13.052;2022-08-18T14:57:52;2.95;;;2.75;;
23206;SDS011;11773;52.570;13.052;2022-08-18T15:00:24;3.17;;;2.97;;
23206;SDS011;11773;52.570;13.052;2022-08-18T15:02:54;2.80;;;2.60;;
23206;SDS011;11773;52.570;13.052;2022-08-18T15:05:26;2.75;;;2.55;;
23206;SDS011;11773;52.570;13.052;2022-08-18T15:07:59;2.70;;;2.50;;
23206;SDS011;11773;52.570;13.052;2022-08-18T15:10:30;2.70;;;2.50;;
23206;SDS011;11773;52.570;13.052;2022-08-18T15:13:01;2.70;;;2.50;;
23206;SDS011;11773;52.570;13.052;2022-08-18T15:15:31;2.85;;;2.65;;
23206;SDS011;11773;52.570;13.052;2022-08-18T15:18:02;2.63;;;2.50;;
23206;SDS011;11773;52.570;13.052;2022-08-18T15:20:35;2.33;;;2.20;;
23206;SDS011;11773;52.570;13.052;2022-08-18T15:23:07;2.60;;;2.40;;
23206;SDS011;11773;52.570;13.052;2022-08-18T15:25:55;2.50;;;2.30;;
23206;SDS011;11773;52.570;13.052;2022-08-18T15:28:25;2.58;;;2.40;;
23206;SDS011;11773;52.570;13.052;2022-08-18T15:30:55;2.60;;;2.50;;
23206;SDS011;11773;52.570;13.052;2022-08-18T15:33:26;2.67;;;2.58;;
23206;SDS011;11773;52.570;13.052;2022-08-18T15:35:58;2.55;;;2.45;;
23206;SDS011;11773;52.570;13.052;2022-08-18T15:38:29;2.27;;;2.17;;
23206;SDS011;11773;52.570;13.052;2022-08-18T15:40:59;2.30;;;2.20;;
23206;SDS011;11773;52.570;13.052;2022-08-18T15:43:31;2.50;;;2.30;;
23206;SDS011;11773;52.570;13.052;2022-08-18T15:46:02;2.12;;;2.02;;
23206;SDS011;11773;52.570;13.052;2022-08-18T15:48:34;2.67;;;2.47;;
23206;SDS011;11773;52.570;13.052;2022-08-18T15:51:05;3.20;;;3.00;;
23206;SDS011;11773;52.570;13.052;2022-08-18T15:53:36;3.20;;;3.00;;
23206;SDS011;11773;52.570;13.052;2022-08-18T15:56:13;2.70;;;2.50;;
23206;SDS011;11773;52.570;13.052;2022-08-18T15:58:47;2.85;;;2.65;;
23206;SDS011;11773;52.570;13.052;2022-08-18T16:01:18;2.92;;;2.72;;
23206;SDS011;11773;52.570;13.052;2022-08-18T16:03:52;2.90;;;2.70;;
23206;SDS011;11773;52.570;13.052;2022-08-18T16:06:23;2.83;;;2.60;;
23206;SDS011;11773;52.570;13.052;2022-08-18T16:08:55;2.30;;;2.20;;
23206;SDS011;11773;52.570;13.052;2022-08-18T16:11:24;2.60;;;2.40;;
23206;SDS011;11773;52.570;13.052;2022-08-18T16:13:56;2.90;;;2.70;;
23206;SDS011;11773;52.570;13.052;2022-08-18T16:16:26;2.17;;;2.07;;
23206;SDS011;11773;52.570;13.052;2022-08-18T16:18:58;2.20;;;2.10;;
23206;SDS011;11773;52.570;13.052;2022-08-18T16:21:28;2.60;;;2.40;;
23206;SDS011;11773;52.570;13.052;2022-08-18T16:23:57;2.30;;;2.20;;
23206;SDS011;11773;52.570;13.052;2022-08-18T16:26:27;2.73;;;2.53;;
23206;SDS011;11773;52.570;13.052;2022-08-18T16:28:57;2.40;;;2.30;;
23206;SDS011;11773;52.570;13.052;2022-08-18T16:31:28;2.70;;;2.50;;
23206;SDS011;11773;52.570;13.052;2022-08-18T16:33:57;2.63;;;2.43;;
23206;SDS011;11773;52.570;13.052;2022-08-18T16:36:27;2.50;;;2.40;;
23206;SDS011;11773;52.570;13.052;2022-08-18T16:38:56;2.10;;;2.00;;
23206;SDS011;11773;52.570;13.052;2022-08-18T16:41:26;1.90;;;1.80;;
23206;SDS011;11773;52.570;13.052;2022-08-18T16:43:57;2.63;;;2.43;;
23206;SDS011;11773;52.570;13.052;2022-08-18T16:46:28;2.42;;;2.33;;
23206;SDS011;11773;52.570;13.052;2022-08-18T16:48:58;2.17;;;2.07;;
23206;SDS011;11773;52.570;13.052;2022-08-18T16:51:29;2.20;;;2.10;;
23206;SDS011;11773;52.570;13.052;2022-08-18T16:53:59;2.17;;;2.07;;
23206;SDS011;11773;52.570;13.052;2022-08-18T16:56:30;1.77;;;1.67;;
23206;SDS011;11773;52.570;13.052;2022-08-18T16:59:01;2.23;;;2.13;;
23206;SDS011;11773;52.570;13.052;2022-08-18T17:01:49;2.30;;;2.20;;
23206;SDS011;11773;52.570;13.052;2022-08-18T17:04:37;2.53;;;2.33;;
23206;SDS011;11773;52.570;13.052;2022-08-18T17:07:07;2.83;;;2.63;;
23206;SDS011;11773;52.570;13.052;2022-08-18T17:09:37;2.97;;;2.77;;
23206;SDS011;11773;52.570;13.052;2022-08-18T17:12:07;2.53;;;2.43;;
23206;SDS011;11773;52.570;13.052;2022-08-18T17:14:37;2.90;;;2.70;;